createdAt,value
2019-01-30T00:00:20.235Z,27.43
2019-01-30T00:01:20.101Z,27.37
2019-01-30T00:02:19.859Z,27.30
2019-01-30T00:03:19.639Z,27.33
2019-01-30T00:04:19.645Z,27.36
2019-01-30T00:05:19.742Z,27.26
2019-01-30T00:06:19.739Z,27.26
2019-01-30T00:07:19.612Z,27.23
2019-01-30T00:08:19.583Z,27.16
2019-01-30T00:09:19.511Z,27.15
2019-01-30T00:10:19.501Z,27.08
2019-01-30T00:11:19.496Z,27.09
2019-01-30T00:12:19.527Z,27.08
2019-01-30T00:13:19.406Z,27.09
2019-01-30T00:14:19.433Z,27.04
2019-01-30T00:15:19.364Z,26.94
2019-01-30T00:16:19.335Z,26.91
2019-01-30T00:17:19.417Z,26.90
2019-01-30T00:18:19.286Z,26.91
2019-01-30T00:19:19.260Z,26.90
2019-01-30T00:20:19.231Z,26.91
2019-01-30T00:21:19.210Z,26.82
2019-01-30T00:22:19.374Z,26.87
2019-01-30T00:23:19.173Z,26.84
2019-01-30T00:24:19.170Z,26.90
2019-01-30T00:25:19.168Z,26.82
2019-01-30T00:26:19.107Z,26.84
2019-01-30T00:27:19.379Z,26.87
2019-01-30T00:28:19.147Z,26.82
2019-01-30T00:29:19.079Z,26.87
2019-01-30T00:30:19.522Z,26.79
2019-01-30T00:31:19.320Z,26.78
2019-01-30T00:32:19.076Z,26.81
2019-01-30T00:33:19.018Z,26.74
2019-01-30T00:34:18.923Z,26.68
2019-01-30T00:35:18.906Z,26.68
2019-01-30T00:36:18.890Z,26.68
2019-01-30T00:37:18.947Z,26.60
2019-01-30T00:38:18.937Z,26.57
2019-01-30T00:39:18.808Z,26.49
2019-01-30T00:40:18.759Z,26.54
2019-01-30T00:41:18.745Z,26.54
2019-01-30T00:42:18.720Z,26.45
2019-01-30T00:43:18.821Z,26.45
2019-01-30T00:44:18.686Z,26.38
2019-01-30T00:45:18.760Z,26.39
2019-01-30T00:46:18.630Z,26.30
2019-01-30T00:47:18.618Z,26.31
2019-01-30T00:48:18.631Z,26.30
2019-01-30T00:49:18.695Z,26.17
2019-01-30T00:50:18.583Z,26.23
2019-01-30T00:51:18.524Z,26.19
2019-01-30T00:52:18.504Z,26.06
2019-01-30T00:53:18.450Z,26.09
2019-01-30T00:54:18.445Z,26.09
2019-01-30T00:55:18.516Z,26.12
2019-01-30T00:56:18.402Z,26.04
2019-01-30T00:57:18.360Z,26.07
2019-01-30T00:58:18.344Z,26.07
2019-01-30T00:59:18.352Z,26.06
2019-01-30T01:00:18.305Z,26.01
2019-01-30T01:01:18.387Z,25.99
2019-01-30T01:02:18.261Z,25.93
2019-01-30T01:03:18.223Z,25.91
2019-01-30T01:04:18.193Z,25.84
2019-01-30T01:05:18.164Z,25.88
2019-01-30T01:06:18.264Z,25.86
2019-01-30T01:07:18.137Z,25.88
2019-01-30T01:08:18.097Z,25.94
2019-01-30T01:09:18.075Z,25.99
2019-01-30T01:10:18.060Z,26.01
2019-01-30T01:11:18.164Z,26.01
2019-01-30T01:12:18.066Z,26.00
2019-01-30T01:13:17.982Z,26.06
2019-01-30T01:14:17.969Z,26.07
2019-01-30T01:15:17.942Z,26.06
2019-01-30T01:16:18.062Z,25.97
2019-01-30T01:17:18.024Z,26.06
2019-01-30T01:18:17.964Z,26.06
2019-01-30T01:19:17.859Z,26.06
2019-01-30T01:20:17.920Z,26.04
2019-01-30T01:21:17.881Z,25.91
2019-01-30T01:22:17.924Z,25.96
2019-01-30T01:23:18.003Z,25.97
2019-01-30T01:24:17.752Z,25.89
2019-01-30T01:25:17.733Z,25.85
2019-01-30T01:26:17.689Z,25.86
2019-01-30T01:27:18.119Z,25.88
2019-01-30T01:28:17.744Z,25.88
2019-01-30T01:29:17.580Z,25.85
2019-01-30T01:30:24.860Z,25.86
2019-01-30T01:31:17.570Z,25.86
2019-01-30T01:32:17.572Z,25.84
2019-01-30T01:33:17.595Z,25.82
2019-01-30T01:34:17.461Z,25.88
2019-01-30T01:35:17.620Z,25.88
2019-01-30T01:36:17.407Z,25.79
2019-01-30T01:37:17.637Z,25.76
2019-01-30T01:38:17.582Z,25.85
2019-01-30T01:39:17.517Z,25.86
2019-01-30T01:40:17.489Z,25.84
2019-01-30T01:41:17.454Z,25.84
2019-01-30T01:42:17.547Z,25.89
2019-01-30T01:43:17.800Z,25.81
2019-01-30T01:44:17.608Z,25.82
2019-01-30T01:45:17.913Z,25.86
2019-01-30T01:46:17.179Z,25.78
2019-01-30T01:47:17.195Z,25.78
2019-01-30T01:48:17.331Z,25.81
2019-01-30T01:49:17.105Z,25.76
2019-01-30T01:50:17.496Z,25.76
2019-01-30T01:51:17.486Z,25.74
2019-01-30T01:52:17.141Z,25.75
2019-01-30T01:53:17.110Z,25.85
2019-01-30T01:54:17.202Z,25.76
2019-01-30T01:55:17.236Z,25.74
2019-01-30T01:56:17.062Z,25.71
2019-01-30T01:57:17.242Z,25.70
2019-01-30T01:58:17.061Z,25.71
2019-01-30T01:59:16.888Z,25.70
2019-01-30T02:00:16.941Z,25.78
2019-01-30T02:01:16.933Z,25.75
2019-01-30T02:02:16.898Z,25.66
2019-01-30T02:03:17.035Z,25.76
2019-01-30T02:04:16.803Z,25.69
2019-01-30T02:05:16.755Z,25.66
2019-01-30T02:06:16.918Z,25.74
2019-01-30T02:07:16.685Z,25.64
2019-01-30T02:08:16.677Z,25.60
2019-01-30T02:09:16.608Z,25.69
2019-01-30T02:10:16.599Z,25.66
2019-01-30T02:11:16.725Z,25.64
2019-01-30T02:12:16.618Z,25.54
2019-01-30T02:13:16.561Z,25.54
2019-01-30T02:14:16.497Z,25.59
2019-01-30T02:15:16.471Z,25.51
2019-01-30T02:16:17.069Z,25.56
2019-01-30T02:17:16.541Z,25.54
2019-01-30T02:18:16.463Z,25.62
2019-01-30T02:19:16.412Z,25.63
2019-01-30T02:20:16.386Z,25.64
2019-01-30T02:21:16.352Z,25.51
2019-01-30T02:22:16.399Z,25.56
2019-01-30T02:23:16.306Z,25.60
2019-01-30T02:24:16.314Z,25.62
2019-01-30T02:25:16.230Z,25.60
2019-01-30T02:26:16.202Z,25.57
2019-01-30T02:27:16.386Z,25.64
2019-01-30T02:28:16.138Z,25.57
2019-01-30T02:29:16.144Z,25.62
2019-01-30T02:30:16.106Z,25.57
2019-01-30T02:31:16.109Z,25.59
2019-01-30T02:32:16.239Z,25.49
2019-01-30T02:33:16.020Z,25.57
2019-01-30T02:34:16.457Z,25.59
2019-01-30T02:35:16.378Z,25.63
2019-01-30T02:36:15.997Z,25.60
2019-01-30T02:37:15.962Z,25.63
2019-01-30T02:38:16.259Z,25.63
2019-01-30T02:39:15.894Z,25.64
2019-01-30T02:40:15.869Z,25.78
2019-01-30T02:41:15.837Z,25.70
2019-01-30T02:42:15.952Z,25.62
2019-01-30T02:43:15.986Z,25.64
2019-01-30T02:44:15.792Z,25.63
2019-01-30T02:45:15.959Z,25.59
2019-01-30T02:46:15.923Z,25.56
2019-01-30T02:47:15.784Z,25.59
2019-01-30T02:48:16.097Z,25.59
2019-01-30T02:49:15.920Z,25.47
2019-01-30T02:50:15.651Z,25.57
2019-01-30T02:51:15.816Z,25.56
2019-01-30T02:52:15.624Z,25.44
2019-01-30T02:53:15.614Z,25.51
2019-01-30T02:54:15.565Z,25.45
2019-01-30T02:55:15.679Z,25.49
2019-01-30T02:56:15.529Z,25.45
2019-01-30T02:57:15.500Z,25.45
2019-01-30T02:58:15.406Z,25.44
2019-01-30T02:59:15.434Z,25.33
2019-01-30T03:00:15.795Z,25.34
2019-01-30T03:01:15.387Z,25.27
2019-01-30T03:02:15.390Z,25.30
2019-01-30T03:03:15.356Z,25.26
2019-01-30T03:04:15.349Z,25.29
2019-01-30T03:05:15.407Z,25.23
2019-01-30T03:06:15.251Z,25.23
2019-01-30T03:07:15.289Z,25.24
2019-01-30T03:08:15.203Z,25.15
2019-01-30T03:09:15.168Z,25.23
2019-01-30T03:10:15.342Z,25.19
2019-01-30T03:11:15.164Z,25.14
2019-01-30T03:12:15.193Z,25.11
2019-01-30T03:13:15.241Z,25.15
2019-01-30T03:14:15.047Z,25.11
2019-01-30T03:15:15.013Z,25.07
2019-01-30T03:16:15.252Z,25.07
2019-01-30T03:17:14.927Z,25.12
2019-01-30T03:18:14.959Z,25.04
2019-01-30T03:19:14.894Z,25.02
2019-01-30T03:20:14.959Z,25.08
2019-01-30T03:21:15.157Z,25.09
2019-01-30T03:22:14.817Z,25.00
2019-01-30T03:23:16.647Z,24.96
2019-01-30T03:24:15.545Z,24.97
2019-01-30T03:25:16.209Z,24.97
2019-01-30T03:26:16.244Z,25.02
2019-01-30T03:27:16.324Z,25.01
2019-01-30T03:28:16.271Z,24.94
2019-01-30T03:29:16.230Z,24.89
2019-01-30T03:30:14.614Z,24.92
2019-01-30T03:31:18.215Z,24.89
2019-01-30T03:32:14.607Z,24.78
2019-01-30T03:33:14.990Z,24.90
2019-01-30T03:34:14.497Z,24.94
2019-01-30T03:35:14.582Z,24.90
2019-01-30T03:36:14.519Z,24.92
2019-01-30T03:37:14.381Z,24.90
2019-01-30T03:38:14.403Z,24.94
2019-01-30T03:39:14.475Z,24.87
2019-01-30T03:40:14.363Z,24.89
2019-01-30T03:41:14.327Z,24.92
2019-01-30T03:42:14.313Z,24.92
2019-01-30T03:43:14.283Z,24.87
2019-01-30T03:44:14.382Z,24.90
2019-01-30T03:45:14.234Z,24.92
2019-01-30T03:46:14.835Z,24.90
2019-01-30T03:47:14.222Z,24.83
2019-01-30T03:48:14.188Z,24.78
2019-01-30T03:49:14.233Z,24.85
2019-01-30T03:50:14.283Z,24.75
2019-01-30T03:51:14.070Z,24.82
2019-01-30T03:52:14.057Z,24.86
2019-01-30T03:53:14.049Z,24.82
2019-01-30T03:54:14.029Z,24.75
2019-01-30T03:55:14.027Z,24.77
2019-01-30T03:56:14.053Z,24.75
2019-01-30T03:57:13.965Z,24.70
2019-01-30T03:58:13.937Z,24.75
2019-01-30T03:59:13.930Z,24.78
2019-01-30T04:00:13.877Z,24.70
2019-01-30T04:01:13.959Z,24.63
2019-01-30T04:02:13.849Z,24.61
2019-01-30T04:03:13.779Z,24.59
2019-01-30T04:04:13.787Z,24.61
2019-01-30T04:05:13.735Z,24.64
2019-01-30T04:06:13.759Z,24.63
2019-01-30T04:07:13.707Z,24.69
2019-01-30T04:08:13.701Z,24.69
2019-01-30T04:09:13.625Z,24.67
2019-01-30T04:10:13.654Z,24.64
2019-01-30T04:11:13.687Z,24.64
2019-01-30T04:12:13.570Z,24.58
2019-01-30T04:13:13.571Z,24.70
2019-01-30T04:14:13.487Z,24.58
2019-01-30T04:15:13.525Z,24.54
2019-01-30T04:16:13.474Z,24.56
2019-01-30T04:17:13.636Z,24.67
2019-01-30T04:18:13.408Z,24.59
2019-01-30T04:19:13.381Z,24.58
2019-01-30T04:20:13.349Z,24.64
2019-01-30T04:21:13.353Z,24.67
2019-01-30T04:22:13.300Z,24.49
2019-01-30T04:23:13.467Z,24.51
2019-01-30T04:24:13.357Z,24.49
2019-01-30T04:25:13.331Z,24.45
2019-01-30T04:26:13.316Z,24.45
2019-01-30T04:27:13.205Z,24.44
2019-01-30T04:28:13.199Z,24.44
2019-01-30T04:29:13.375Z,24.51
2019-01-30T04:30:13.210Z,24.45
2019-01-30T04:31:13.107Z,24.48
2019-01-30T04:32:13.084Z,24.52
2019-01-30T04:33:13.208Z,24.52
2019-01-30T04:34:13.148Z,24.54
2019-01-30T04:35:13.151Z,24.52
2019-01-30T04:36:13.088Z,24.49
2019-01-30T04:37:12.916Z,24.49
2019-01-30T04:38:12.912Z,24.54
2019-01-30T04:39:12.968Z,24.49
2019-01-30T04:40:12.849Z,24.51
2019-01-30T04:41:12.848Z,24.52
2019-01-30T04:42:12.818Z,24.45
2019-01-30T04:43:12.785Z,24.51
2019-01-30T04:44:12.865Z,24.42
2019-01-30T04:45:12.703Z,24.46
2019-01-30T04:46:12.693Z,24.37
2019-01-30T04:47:12.701Z,24.44
2019-01-30T04:48:12.669Z,24.36
2019-01-30T04:49:12.691Z,24.37
2019-01-30T04:50:12.592Z,24.42
2019-01-30T04:51:12.577Z,24.49
2019-01-30T04:52:12.538Z,24.45
2019-01-30T04:53:12.518Z,24.51
2019-01-30T04:54:12.585Z,24.55
2019-01-30T04:55:12.456Z,24.44
2019-01-30T04:56:12.442Z,24.40
2019-01-30T04:57:12.416Z,24.37
2019-01-30T04:58:12.411Z,24.30
2019-01-30T04:59:12.369Z,24.37
2019-01-30T05:00:12.434Z,24.37
2019-01-30T05:01:12.319Z,24.45
2019-01-30T05:02:12.302Z,24.46
2019-01-30T05:03:12.255Z,24.44
2019-01-30T05:04:12.244Z,24.42
2019-01-30T05:05:12.254Z,24.49
2019-01-30T05:06:12.284Z,24.42
2019-01-30T05:07:12.154Z,24.55
2019-01-30T05:08:12.137Z,24.51
2019-01-30T05:09:12.126Z,24.42
2019-01-30T05:10:12.076Z,24.37
2019-01-30T05:11:12.154Z,24.40
2019-01-30T05:12:12.035Z,24.30
2019-01-30T05:13:12.012Z,24.36
2019-01-30T05:14:11.994Z,24.32
2019-01-30T05:15:11.956Z,24.29
2019-01-30T05:16:12.028Z,24.22
2019-01-30T05:17:11.891Z,24.26
2019-01-30T05:18:11.879Z,24.22
2019-01-30T05:19:11.847Z,24.24
2019-01-30T05:20:11.833Z,24.33
2019-01-30T05:21:11.914Z,24.22
2019-01-30T05:22:11.786Z,24.33
2019-01-30T05:23:11.749Z,24.22
2019-01-30T05:24:11.728Z,24.24
2019-01-30T05:25:11.692Z,24.21
2019-01-30T05:26:11.787Z,24.24
2019-01-30T05:27:11.661Z,24.26
2019-01-30T05:28:11.629Z,24.24
2019-01-30T05:29:11.594Z,24.29
2019-01-30T05:30:11.570Z,24.26
2019-01-30T05:31:11.650Z,24.21
2019-01-30T05:32:11.544Z,24.27
2019-01-30T05:33:11.491Z,24.26
2019-01-30T05:34:11.638Z,24.30
2019-01-30T05:35:11.445Z,24.21
2019-01-30T05:36:11.415Z,24.22
2019-01-30T05:37:11.471Z,24.15
2019-01-30T05:38:11.358Z,24.22
2019-01-30T05:39:11.337Z,24.15
2019-01-30T05:40:11.320Z,24.21
2019-01-30T05:41:11.287Z,24.18
2019-01-30T05:42:11.283Z,24.21
2019-01-30T05:43:11.342Z,24.22
2019-01-30T05:44:11.208Z,24.15
2019-01-30T05:45:11.204Z,24.18
2019-01-30T05:46:11.159Z,24.12
2019-01-30T05:47:11.178Z,24.19
2019-01-30T05:48:11.219Z,24.08
2019-01-30T05:49:11.086Z,24.14
2019-01-30T05:50:11.059Z,24.14
2019-01-30T05:51:11.062Z,24.09
2019-01-30T05:52:11.016Z,24.12
2019-01-30T05:53:11.096Z,24.11
2019-01-30T05:54:10.968Z,24.12
2019-01-30T05:55:10.937Z,24.11
2019-01-30T05:56:10.902Z,24.12
2019-01-30T05:57:10.893Z,24.15
2019-01-30T05:58:11.023Z,24.17
2019-01-30T05:59:10.828Z,24.11
2019-01-30T06:00:10.809Z,24.08
2019-01-30T06:01:10.794Z,24.07
2019-01-30T06:02:12.123Z,24.11
2019-01-30T06:03:10.833Z,24.04
2019-01-30T06:04:10.715Z,24.08
2019-01-30T06:05:10.686Z,24.18
2019-01-30T06:06:10.671Z,24.09
2019-01-30T06:07:10.630Z,24.00
2019-01-30T06:08:10.708Z,23.93
2019-01-30T06:09:10.582Z,23.94
2019-01-30T06:10:10.569Z,23.99
2019-01-30T06:11:12.166Z,23.87
2019-01-30T06:12:10.507Z,23.87
2019-01-30T06:13:10.528Z,23.84
2019-01-30T06:14:10.551Z,23.77
2019-01-30T06:15:10.416Z,23.72
2019-01-30T06:16:10.428Z,23.75
2019-01-30T06:17:10.368Z,23.70
2019-01-30T06:18:10.337Z,23.75
2019-01-30T06:19:10.412Z,23.67
2019-01-30T06:20:10.404Z,23.71
2019-01-30T06:21:10.284Z,23.71
2019-01-30T06:22:10.244Z,23.64
2019-01-30T06:23:10.230Z,23.66
2019-01-30T06:24:10.199Z,23.77
2019-01-30T06:25:10.340Z,23.72
2019-01-30T06:26:10.160Z,23.71
2019-01-30T06:27:10.192Z,23.77
2019-01-30T06:28:10.096Z,23.71
2019-01-30T06:29:10.058Z,23.70
2019-01-30T06:30:10.187Z,23.70
2019-01-30T06:31:10.110Z,23.67
2019-01-30T06:32:09.996Z,23.63
2019-01-30T06:33:09.957Z,23.60
2019-01-30T06:34:09.941Z,23.63
2019-01-30T06:35:10.117Z,23.71
2019-01-30T06:36:09.968Z,23.63
2019-01-30T06:37:09.905Z,23.63
2019-01-30T06:38:09.889Z,23.64
2019-01-30T06:39:09.804Z,23.59
2019-01-30T06:40:09.888Z,23.59
2019-01-30T06:41:09.764Z,23.52
2019-01-30T06:42:09.772Z,23.62
2019-01-30T06:43:09.720Z,23.53
2019-01-30T06:44:09.740Z,23.53
2019-01-30T06:45:09.785Z,23.55
2019-01-30T06:46:09.626Z,23.52
2019-01-30T06:47:09.593Z,23.50
2019-01-30T06:48:09.586Z,23.55
2019-01-30T06:49:09.567Z,23.56
2019-01-30T06:50:09.582Z,23.42
2019-01-30T06:51:09.644Z,23.53
2019-01-30T06:52:09.482Z,23.55
2019-01-30T06:53:09.443Z,23.52
2019-01-30T06:54:09.531Z,23.50
2019-01-30T06:55:09.402Z,23.56
2019-01-30T06:56:09.357Z,23.57
2019-01-30T06:57:09.453Z,23.53
2019-01-30T06:58:09.316Z,23.56
2019-01-30T06:59:09.309Z,23.41
2019-01-30T07:00:09.259Z,23.47
2019-01-30T07:01:09.266Z,23.45
2019-01-30T07:02:09.333Z,23.42
2019-01-30T07:03:09.185Z,23.45
2019-01-30T07:04:09.159Z,23.40
2019-01-30T07:05:09.128Z,23.47
2019-01-30T07:06:09.100Z,23.41
2019-01-30T07:07:09.184Z,23.29
2019-01-30T07:08:09.050Z,23.29
2019-01-30T07:09:09.021Z,23.38
2019-01-30T07:10:09.000Z,23.25
2019-01-30T07:11:10.561Z,23.22
2019-01-30T07:12:09.066Z,23.24
2019-01-30T07:13:08.926Z,23.21
2019-01-30T07:14:08.901Z,23.28
2019-01-30T07:15:08.898Z,23.22
2019-01-30T07:16:08.852Z,23.22
2019-01-30T07:17:08.937Z,23.21
2019-01-30T07:18:08.814Z,23.21
2019-01-30T07:19:08.780Z,23.21
2019-01-30T07:20:08.761Z,23.28
2019-01-30T07:21:08.729Z,23.21
2019-01-30T07:22:08.801Z,23.32
2019-01-30T07:23:08.663Z,23.25
2019-01-30T07:24:08.643Z,23.32
2019-01-30T07:25:08.631Z,23.18
2019-01-30T07:26:08.602Z,23.12
2019-01-30T07:27:08.620Z,23.24
2019-01-30T07:28:08.585Z,23.21
2019-01-30T07:29:08.521Z,23.32
2019-01-30T07:30:08.497Z,23.16
2019-01-30T07:31:08.456Z,23.14
2019-01-30T07:32:08.448Z,23.15
2019-01-30T07:33:08.415Z,23.19
2019-01-30T07:34:08.501Z,23.15
2019-01-30T07:35:08.381Z,23.14
2019-01-30T07:36:08.328Z,23.15
2019-01-30T07:37:08.307Z,23.19
2019-01-30T07:38:08.360Z,23.09
2019-01-30T07:39:08.420Z,23.09
2019-01-30T07:40:08.326Z,23.07
2019-01-30T07:41:08.237Z,23.03
2019-01-30T07:42:08.185Z,22.96
2019-01-30T07:43:08.145Z,22.94
2019-01-30T07:44:08.166Z,22.97
2019-01-30T07:45:08.193Z,22.94
2019-01-30T07:46:08.136Z,22.89
2019-01-30T07:47:08.044Z,22.84
2019-01-30T07:48:08.015Z,22.89
2019-01-30T07:49:07.979Z,22.88
2019-01-30T07:50:08.083Z,22.85
2019-01-30T07:51:07.937Z,22.85
2019-01-30T07:52:07.910Z,22.85
2019-01-30T07:53:07.887Z,22.85
2019-01-30T07:54:07.873Z,22.78
2019-01-30T07:55:07.944Z,22.94
2019-01-30T07:56:07.827Z,22.85
2019-01-30T07:57:07.777Z,22.99
2019-01-30T07:58:07.759Z,22.92
2019-01-30T07:59:07.767Z,22.96
2019-01-30T08:00:07.799Z,22.97
2019-01-30T08:01:07.779Z,23.00
2019-01-30T08:02:07.653Z,22.88
2019-01-30T08:03:07.613Z,22.96
2019-01-30T08:04:07.599Z,22.99
2019-01-30T08:05:07.590Z,22.96
2019-01-30T08:06:07.655Z,22.92
2019-01-30T08:07:07.569Z,22.92
2019-01-30T08:08:07.491Z,22.92
2019-01-30T08:09:07.473Z,22.94
2019-01-30T08:10:07.461Z,22.85
2019-01-30T08:11:07.595Z,22.91
2019-01-30T08:12:07.491Z,22.88
2019-01-30T08:13:07.380Z,22.86
2019-01-30T08:14:07.348Z,22.86
2019-01-30T08:15:07.406Z,22.84
2019-01-30T08:16:07.276Z,22.81
2019-01-30T08:17:07.265Z,22.86
2019-01-30T08:18:07.345Z,22.85
2019-01-30T08:19:07.199Z,22.82
2019-01-30T08:20:07.189Z,22.85
2019-01-30T08:21:07.152Z,22.85
2019-01-30T08:22:07.151Z,22.85
2019-01-30T08:23:07.474Z,22.81
2019-01-30T08:24:07.450Z,22.88
2019-01-30T08:25:07.514Z,22.75
2019-01-30T08:26:07.381Z,22.73
2019-01-30T08:27:07.440Z,22.78
2019-01-30T08:28:07.223Z,22.84
2019-01-30T08:29:07.165Z,22.89
2019-01-30T08:30:06.998Z,22.75
2019-01-30T08:31:07.328Z,22.78
2019-01-30T08:32:07.008Z,22.73
2019-01-30T08:33:06.921Z,22.69
2019-01-30T08:34:06.912Z,22.64
2019-01-30T08:35:06.814Z,22.63
2019-01-30T08:36:06.755Z,22.63
2019-01-30T08:37:06.745Z,22.66
2019-01-30T08:38:06.712Z,22.67
2019-01-30T08:39:06.735Z,22.64
2019-01-30T08:40:06.760Z,22.60
2019-01-30T08:41:06.622Z,22.66
2019-01-30T08:42:06.595Z,22.67
2019-01-30T08:43:06.593Z,22.64
2019-01-30T08:44:06.558Z,22.63
2019-01-30T08:45:06.637Z,22.67
2019-01-30T08:46:06.495Z,22.64
2019-01-30T08:47:06.475Z,22.66
2019-01-30T08:48:06.458Z,22.61
2019-01-30T08:49:06.421Z,22.66
2019-01-30T08:50:06.501Z,22.70
2019-01-30T08:51:06.456Z,22.67
2019-01-30T08:52:06.346Z,22.69
2019-01-30T08:53:06.315Z,22.70
2019-01-30T08:54:06.292Z,22.67
2019-01-30T08:55:06.263Z,22.69
2019-01-30T08:56:06.259Z,22.61
2019-01-30T08:57:06.498Z,22.66
2019-01-30T08:58:06.202Z,22.55
2019-01-30T08:59:06.181Z,22.49
2019-01-30T09:00:06.128Z,22.52
2019-01-30T09:01:06.104Z,22.52
2019-01-30T09:02:06.078Z,22.46
2019-01-30T09:03:14.452Z,22.52
2019-01-30T09:04:06.026Z,22.60
2019-01-30T09:05:06.005Z,22.49
2019-01-30T09:06:05.975Z,22.55
2019-01-30T09:07:05.972Z,22.44
2019-01-30T09:08:08.694Z,22.38
2019-01-30T09:09:05.980Z,22.38
2019-01-30T09:10:05.862Z,22.46
2019-01-30T09:11:05.830Z,22.54
2019-01-30T09:12:05.817Z,22.49
2019-01-30T09:13:05.804Z,22.41
2019-01-30T09:14:05.822Z,22.46
2019-01-30T09:15:05.831Z,22.46
2019-01-30T09:16:05.711Z,22.49
2019-01-30T09:17:08.560Z,22.51
2019-01-30T09:18:05.652Z,22.51
2019-01-30T09:19:05.628Z,22.48
2019-01-30T09:20:05.698Z,22.49
2019-01-30T09:21:05.579Z,22.49
2019-01-30T09:22:05.549Z,22.52
2019-01-30T09:23:05.531Z,22.46
2019-01-30T09:24:05.511Z,22.46
2019-01-30T09:25:05.496Z,22.41
2019-01-30T09:26:05.557Z,22.45
2019-01-30T09:27:05.421Z,22.42
2019-01-30T09:28:05.407Z,22.46
2019-01-30T09:29:05.360Z,22.46
2019-01-30T09:30:05.338Z,22.39
2019-01-30T09:31:05.312Z,22.49
2019-01-30T09:32:05.326Z,22.41
2019-01-30T09:33:05.288Z,22.46
2019-01-30T09:34:05.233Z,22.44
2019-01-30T09:35:05.214Z,22.42
2019-01-30T09:36:05.167Z,22.36
2019-01-30T09:37:05.248Z,22.36
2019-01-30T09:38:05.150Z,22.36
2019-01-30T09:39:05.203Z,22.27
2019-01-30T09:40:05.091Z,22.33
2019-01-30T09:41:05.055Z,22.30
2019-01-30T09:42:05.028Z,22.29
2019-01-30T09:43:05.259Z,22.39
2019-01-30T09:44:04.967Z,22.29
2019-01-30T09:45:04.976Z,22.34
2019-01-30T09:46:04.959Z,22.31
2019-01-30T09:47:04.890Z,22.31
2019-01-30T09:48:04.902Z,22.34
2019-01-30T09:49:04.931Z,22.33
2019-01-30T09:50:04.806Z,22.29
2019-01-30T09:51:04.771Z,22.36
2019-01-30T09:52:04.769Z,22.36
2019-01-30T09:53:04.744Z,22.31
2019-01-30T09:54:04.791Z,22.24
2019-01-30T09:55:04.674Z,22.26
2019-01-30T09:56:04.680Z,22.38
2019-01-30T09:57:04.617Z,22.30
2019-01-30T09:58:04.593Z,22.29
2019-01-30T09:59:04.669Z,22.31
2019-01-30T10:00:04.553Z,22.26
2019-01-30T10:01:04.545Z,22.31
2019-01-30T10:02:04.500Z,22.33
2019-01-30T10:03:04.455Z,22.23
2019-01-30T10:04:04.442Z,22.24
2019-01-30T10:05:04.512Z,22.20
2019-01-30T10:06:04.380Z,22.29
2019-01-30T10:07:04.362Z,22.15
2019-01-30T10:08:04.369Z,22.18
2019-01-30T10:09:04.318Z,22.20
2019-01-30T10:10:04.266Z,22.22
2019-01-30T10:11:04.361Z,22.22
2019-01-30T10:12:04.233Z,22.26
2019-01-30T10:13:04.243Z,22.22
2019-01-30T10:14:04.173Z,22.16
2019-01-30T10:15:04.142Z,22.16
2019-01-30T10:16:04.158Z,22.20
2019-01-30T10:17:04.097Z,22.16
2019-01-30T10:18:04.058Z,22.20
2019-01-30T10:19:04.028Z,22.16
2019-01-30T10:20:04.017Z,22.18
2019-01-30T10:21:04.045Z,22.26
2019-01-30T10:22:04.142Z,22.20
2019-01-30T10:23:03.938Z,22.14
2019-01-30T10:24:03.899Z,22.08
2019-01-30T10:25:03.875Z,22.20
2019-01-30T10:26:03.841Z,22.23
2019-01-30T10:27:03.952Z,22.20
2019-01-30T10:28:03.808Z,22.18
2019-01-30T10:29:03.787Z,22.12
2019-01-30T10:30:03.780Z,22.09
2019-01-30T10:31:03.733Z,22.09
2019-01-30T10:32:03.781Z,22.11
2019-01-30T10:33:03.671Z,22.14
2019-01-30T10:34:03.653Z,22.07
2019-01-30T10:35:03.629Z,22.08
2019-01-30T10:36:03.702Z,22.07
2019-01-30T10:37:03.870Z,22.09
2019-01-30T10:38:03.532Z,22.12
2019-01-30T10:39:03.513Z,22.08
2019-01-30T10:40:03.482Z,22.09
2019-01-30T10:41:03.447Z,22.16
2019-01-30T10:42:03.430Z,22.11
2019-01-30T10:43:03.521Z,22.18
2019-01-30T10:44:03.388Z,22.14
2019-01-30T10:45:03.361Z,22.05
2019-01-30T10:46:03.350Z,22.14
2019-01-30T10:47:03.301Z,22.09
2019-01-30T10:48:03.278Z,22.02
2019-01-30T10:49:03.412Z,22.16
2019-01-30T10:50:03.226Z,22.08
2019-01-30T10:51:03.203Z,22.09
2019-01-30T10:52:03.151Z,22.09
2019-01-30T10:53:03.153Z,22.12
2019-01-30T10:54:03.171Z,22.11
2019-01-30T10:55:03.187Z,22.09
2019-01-30T10:56:03.084Z,22.12
2019-01-30T10:57:03.044Z,22.00
2019-01-30T10:58:03.046Z,22.04
2019-01-30T10:59:02.968Z,22.08
2019-01-30T11:00:03.093Z,22.05
2019-01-30T11:01:02.926Z,22.09
2019-01-30T11:02:02.899Z,21.94
2019-01-30T11:03:02.882Z,22.11
2019-01-30T11:04:02.846Z,22.04
2019-01-30T11:05:02.918Z,21.99
2019-01-30T11:06:02.807Z,22.04
2019-01-30T11:07:02.805Z,22.07
2019-01-30T11:08:02.737Z,22.02
2019-01-30T11:09:02.727Z,22.09
2019-01-30T11:10:02.775Z,22.12
2019-01-30T11:11:07.978Z,22.15
2019-01-30T11:12:02.631Z,22.12
2019-01-30T11:13:02.620Z,22.15
2019-01-30T11:14:02.588Z,22.11
2019-01-30T11:15:03.293Z,22.15
2019-01-30T11:16:02.549Z,22.12
2019-01-30T11:17:02.541Z,22.09
2019-01-30T11:18:02.463Z,22.05
2019-01-30T11:19:02.434Z,22.00
2019-01-30T11:20:02.414Z,21.99
2019-01-30T11:21:02.498Z,21.94
2019-01-30T11:22:02.361Z,21.99
2019-01-30T11:23:02.324Z,21.96
2019-01-30T11:24:02.299Z,21.94
2019-01-30T11:25:02.275Z,21.94
2019-01-30T11:26:02.271Z,21.99
2019-01-30T11:27:02.326Z,21.96
2019-01-30T11:28:02.223Z,22.02
2019-01-30T11:29:02.190Z,21.96
2019-01-30T11:30:02.153Z,21.99
2019-01-30T11:31:02.126Z,22.07
2019-01-30T11:32:02.091Z,21.96
2019-01-30T11:33:02.174Z,21.96
2019-01-30T11:34:07.530Z,21.92
2019-01-30T11:35:02.017Z,21.93
2019-01-30T11:36:01.978Z,21.96
2019-01-30T11:37:01.966Z,21.94
2019-01-30T11:38:02.054Z,22.04
2019-01-30T11:39:01.918Z,21.97
2019-01-30T11:40:01.909Z,21.97
2019-01-30T11:41:01.861Z,21.94
2019-01-30T11:42:01.834Z,21.90
2019-01-30T11:43:01.899Z,21.94
2019-01-30T11:44:01.796Z,21.94
2019-01-30T11:45:01.750Z,21.99
2019-01-30T11:46:01.800Z,21.94
2019-01-30T11:47:01.730Z,21.96
2019-01-30T11:48:01.768Z,21.93
2019-01-30T11:49:01.640Z,22.00
2019-01-30T11:50:01.658Z,21.96
2019-01-30T11:51:01.601Z,21.90
2019-01-30T11:52:01.571Z,21.97
2019-01-30T11:53:01.631Z,21.89
2019-01-30T11:54:01.511Z,21.96
2019-01-30T11:55:01.469Z,21.92
2019-01-30T11:56:01.459Z,21.83
2019-01-30T11:57:01.546Z,21.93
2019-01-30T11:58:01.520Z,21.97
2019-01-30T11:59:01.510Z,21.96
2019-01-30T12:00:01.376Z,21.96
2019-01-30T12:01:03.428Z,21.92
2019-01-30T12:02:01.276Z,21.96
2019-01-30T12:03:01.274Z,21.89
2019-01-30T12:04:01.287Z,21.92
2019-01-30T12:05:01.265Z,21.85
2019-01-30T12:06:01.183Z,21.90
2019-01-30T12:07:01.168Z,21.94
2019-01-30T12:08:01.156Z,22.02
2019-01-30T12:09:01.089Z,21.99
2019-01-30T12:10:01.186Z,22.05
2019-01-30T12:11:01.037Z,22.08
2019-01-30T12:12:01.024Z,22.08
2019-01-30T12:13:00.995Z,22.14
2019-01-30T12:14:01.005Z,22.12
2019-01-30T12:15:01.050Z,22.14
2019-01-30T12:16:00.925Z,22.26
2019-01-30T12:17:00.899Z,22.22
2019-01-30T12:18:00.866Z,22.24
2019-01-30T12:19:00.877Z,22.24
2019-01-30T12:20:00.923Z,22.27
2019-01-30T12:21:00.807Z,22.24
2019-01-30T12:22:00.770Z,22.26
2019-01-30T12:23:00.748Z,22.31
2019-01-30T12:24:00.711Z,22.36
2019-01-30T12:25:00.797Z,22.42
2019-01-30T12:26:00.657Z,22.49
2019-01-30T12:27:00.639Z,22.54
2019-01-30T12:28:00.588Z,22.60
2019-01-30T12:29:00.637Z,22.55
2019-01-30T12:30:00.632Z,22.60
2019-01-30T12:31:00.531Z,22.67
2019-01-30T12:32:00.505Z,22.63
2019-01-30T12:33:00.461Z,22.67
2019-01-30T12:34:00.433Z,22.73
2019-01-30T12:35:00.395Z,22.75
2019-01-30T12:36:00.521Z,22.75
2019-01-30T12:37:00.353Z,22.79
2019-01-30T12:38:00.337Z,22.85
2019-01-30T12:39:00.344Z,22.86
2019-01-30T12:40:00.372Z,22.86
2019-01-30T12:41:00.261Z,22.94
2019-01-30T12:42:00.360Z,23.01
2019-01-30T12:43:00.205Z,23.04
2019-01-30T12:44:00.225Z,23.15
2019-01-30T12:45:00.307Z,23.21
2019-01-30T12:46:00.121Z,23.35
2019-01-30T12:47:00.233Z,23.45
2019-01-30T12:48:00.060Z,23.57
2019-01-30T12:49:00.094Z,23.50
2019-01-30T12:50:00.005Z,23.57
2019-01-30T12:51:00.015Z,23.70
2019-01-30T12:52:00.086Z,23.82